createdAt,value
2023-03-31T00:00:21.559Z,5.30
2023-03-31T00:03:50.516Z,4.00
2023-03-31T00:06:32.450Z,3.30
2023-03-31T00:09:11.486Z,4.20
2023-03-31T00:12:05.973Z,4.50
2023-03-31T00:14:57.398Z,8.20
2023-03-31T00:20:05.837Z,5.40
2023-03-31T00:22:38.722Z,3.30
2023-03-31T00:25:16.731Z,4.00
2023-03-31T00:27:56.449Z,4.50
2023-03-31T00:30:44.900Z,10.90
2023-03-31T00:33:13.921Z,10.40
2023-03-31T00:35:46.236Z,5.70
2023-03-31T00:38:24.857Z,5.80
2023-03-31T00:41:04.425Z,8.40
2023-03-31T00:44:01.074Z,7.50
2023-03-31T00:46:51.219Z,6.70
2023-03-31T00:49:48.008Z,8.90
2023-03-31T00:52:41.864Z,10.90
2023-03-31T00:55:14.324Z,6.90
2023-03-31T00:57:46.727Z,6.40
2023-03-31T01:00:28.010Z,9.60
2023-03-31T01:03:01.743Z,6.90
2023-03-31T01:05:44.574Z,7.30
2023-03-31T01:08:27.682Z,7.90
2023-03-31T01:11:12.492Z,7.30
2023-03-31T01:14:11.306Z,10.80
2023-03-31T01:16:44.774Z,6.90
2023-03-31T01:19:22.586Z,8.20
2023-03-31T01:22:17.294Z,8.50
2023-03-31T01:25:12.276Z,7.60
2023-03-31T01:28:01.530Z,8.90
2023-03-31T01:30:49.997Z,8.40
2023-03-31T01:33:41.338Z,7.10
2023-03-31T01:36:26.039Z,7.80
2023-03-31T01:42:17.656Z,11.30
2023-03-31T01:45:16.436Z,9.90
2023-03-31T01:47:52.158Z,5.90
2023-03-31T01:50:27.452Z,7.90
2023-03-31T01:53:26.170Z,8.20
2023-03-31T01:56:03.169Z,8.50
2023-03-31T01:58:40.751Z,7.50
2023-03-31T02:01:17.058Z,8.00
2023-03-31T02:03:53.697Z,9.10
2023-03-31T02:06:28.737Z,7.20
2023-03-31T02:09:05.148Z,6.60
2023-03-31T02:11:36.487Z,8.10
2023-03-31T02:14:09.053Z,7.20
2023-03-31T02:16:47.502Z,7.50
2023-03-31T02:19:25.115Z,6.50
2023-03-31T02:21:59.499Z,7.90
2023-03-31T02:24:31.620Z,6.30
2023-03-31T02:27:32.301Z,8.10
2023-03-31T02:30:21.252Z,8.70
2023-03-31T02:32:55.186Z,8.90
2023-03-31T02:35:28.478Z,6.90
2023-03-31T02:38:02.485Z,7.80
2023-03-31T02:40:37.003Z,8.30
2023-03-31T02:43:10.176Z,6.30
2023-03-31T02:45:54.275Z,7.40
2023-03-31T02:48:34.719Z,6.90
2023-03-31T02:51:14.632Z,8.60
2023-03-31T02:54:00.120Z,11.40
2023-03-31T02:59:24.392Z,8.90
2023-03-31T03:02:33.358Z,9.50
2023-03-31T03:05:21.784Z,8.00
2023-03-31T03:08:34.617Z,6.50
2023-03-31T03:11:26.178Z,8.70
2023-03-31T03:14:09.789Z,9.50
2023-03-31T03:16:41.683Z,8.60
2023-03-31T03:19:11.304Z,9.80
2023-03-31T03:21:52.829Z,8.20
2023-03-31T03:27:09.409Z,8.20
2023-03-31T03:29:44.105Z,8.50
2023-03-31T03:32:12.538Z,47.70
2023-03-31T03:35:01.867Z,20.60
2023-03-31T03:37:35.434Z,29.30
2023-03-31T03:40:06.018Z,18.30
2023-03-31T03:42:41.796Z,13.50
2023-03-31T03:45:22.090Z,7.90
2023-03-31T03:50:45.087Z,8.10
2023-03-31T03:53:44.246Z,8.40
2023-03-31T03:56:32.897Z,8.10
2023-03-31T03:59:11.222Z,8.10
2023-03-31T04:02:01.143Z,8.60
2023-03-31T04:04:31.959Z,9.80
2023-03-31T04:07:14.297Z,11.20
2023-03-31T04:10:23.090Z,9.20
2023-03-31T04:13:00.838Z,10.10
2023-03-31T04:15:31.582Z,9.20
2023-03-31T04:18:06.358Z,11.90
2023-03-31T04:20:39.949Z,11.10
2023-03-31T04:23:11.142Z,11.20
2023-03-31T04:25:47.358Z,13.60
2023-03-31T04:28:20.130Z,14.60
2023-03-31T04:30:51.149Z,11.10
2023-03-31T04:34:02.882Z,11.00
2023-03-31T04:36:56.262Z,12.00
2023-03-31T04:39:30.767Z,17.20
2023-03-31T04:42:11.691Z,17.40
2023-03-31T04:44:48.316Z,12.90
2023-03-31T04:47:39.522Z,11.50
2023-03-31T04:50:28.551Z,14.60
2023-03-31T04:53:02.760Z,19.40
2023-03-31T04:55:33.924Z,14.50
2023-03-31T04:58:26.689Z,9.60
2023-03-31T05:00:58.258Z,9.20
2023-03-31T05:03:29.754Z,9.80
2023-03-31T05:06:01.222Z,9.60
2023-03-31T05:08:35.706Z,8.90
2023-03-31T05:11:35.483Z,7.50
2023-03-31T05:14:04.357Z,8.70
2023-03-31T05:16:59.423Z,13.10
2023-03-31T05:19:50.408Z,14.90
2023-03-31T05:22:20.828Z,9.90
2023-03-31T05:24:56.270Z,16.10
2023-03-31T05:27:35.673Z,16.10
2023-03-31T05:30:16.689Z,13.70
2023-03-31T05:32:54.895Z,11.40
2023-03-31T05:35:26.864Z,37.30
2023-03-31T05:38:17.424Z,13.80
2023-03-31T05:41:00.949Z,12.20
2023-03-31T05:43:34.649Z,9.90
2023-03-31T05:46:05.735Z,10.50
2023-03-31T05:48:46.245Z,9.50
2023-03-31T05:51:36.976Z,8.20
2023-03-31T05:54:06.509Z,8.40
2023-03-31T05:56:37.812Z,13.50
2023-03-31T05:59:06.605Z,9.00
2023-03-31T06:04:16.529Z,9.00
2023-03-31T06:07:08.706Z,7.70
2023-03-31T06:09:57.166Z,9.00
2023-03-31T06:12:28.933Z,7.90
2023-03-31T06:15:02.007Z,8.50
2023-03-31T06:17:45.053Z,9.10
2023-03-31T06:20:28.155Z,8.00
2023-03-31T06:23:03.797Z,6.90
2023-03-31T06:25:47.876Z,9.90
2023-03-31T06:28:42.841Z,6.90
2023-03-31T06:31:21.870Z,7.10
2023-03-31T06:33:56.472Z,7.90
2023-03-31T06:36:48.831Z,9.20
2023-03-31T06:39:28.807Z,8.30
2023-03-31T06:42:05.138Z,8.50
2023-03-31T06:44:43.435Z,8.30
2023-03-31T06:47:14.431Z,7.90
2023-03-31T06:49:46.378Z,8.50
2023-03-31T06:52:18.023Z,8.40
2023-03-31T06:55:02.874Z,8.30
2023-03-31T06:58:10.335Z,7.80
2023-03-31T07:00:59.106Z,9.30
2023-03-31T07:03:35.429Z,9.50
2023-03-31T07:06:27.024Z,9.10
2023-03-31T07:09:27.091Z,9.50
2023-03-31T07:11:58.498Z,9.60
2023-03-31T07:15:09.396Z,9.40
2023-03-31T07:18:02.281Z,10.20
2023-03-31T07:23:48.243Z,9.30
2023-03-31T07:26:19.489Z,10.30
2023-03-31T07:28:47.787Z,10.30
2023-03-31T07:31:18.766Z,11.90
2023-03-31T07:36:40.984Z,10.00
2023-03-31T07:39:51.918Z,10.20
2023-03-31T07:42:38.155Z,9.10
2023-03-31T07:45:26.941Z,9.30
2023-03-31T07:48:18.640Z,12.30
2023-03-31T07:50:57.532Z,9.30
2023-03-31T07:53:52.611Z,9.20
2023-03-31T07:56:24.738Z,11.30
2023-03-31T07:58:56.052Z,10.10
2023-03-31T08:01:46.152Z,9.30
2023-03-31T08:04:20.879Z,9.60
2023-03-31T08:06:54.445Z,9.60
2023-03-31T08:09:35.058Z,11.10
2023-03-31T08:12:06.472Z,10.60
2023-03-31T08:14:54.996Z,10.40
2023-03-31T08:17:53.408Z,10.30
2023-03-31T08:20:24.477Z,13.90
2023-03-31T08:23:09.149Z,10.40
2023-03-31T08:25:43.690Z,9.80
2023-03-31T08:28:20.161Z,15.50
2023-03-31T08:30:53.301Z,11.60
2023-03-31T08:33:21.738Z,12.70
2023-03-31T08:35:57.060Z,13.90
2023-03-31T08:38:28.143Z,8.30
2023-03-31T08:41:00.575Z,8.20
2023-03-31T08:43:37.170Z,17.00
2023-03-31T08:46:38.692Z,12.10
2023-03-31T08:49:07.482Z,14.30
2023-03-31T08:51:41.956Z,10.50
2023-03-31T08:54:28.889Z,13.60
2023-03-31T08:57:08.356Z,17.00
2023-03-31T08:59:41.235Z,10.60
2023-03-31T09:02:18.943Z,17.50
2023-03-31T09:05:15.308Z,11.80
2023-03-31T09:08:15.215Z,12.10
2023-03-31T09:10:56.701Z,14.60
2023-03-31T09:13:24.819Z,13.70
2023-03-31T09:16:00.432Z,14.20
2023-03-31T09:18:46.577Z,13.00
2023-03-31T09:21:31.973Z,17.40
2023-03-31T09:24:21.649Z,12.00
2023-03-31T09:26:55.017Z,11.80
2023-03-31T09:29:31.440Z,12.40
2023-03-31T09:32:14.477Z,16.80
2023-03-31T09:34:43.502Z,13.50
2023-03-31T09:37:12.168Z,10.40
2023-03-31T09:39:41.119Z,11.70
2023-03-31T09:42:12.647Z,13.40
2023-03-31T09:44:47.715Z,10.90
2023-03-31T09:47:34.862Z,8.00
2023-03-31T09:50:06.442Z,6.60
2023-03-31T09:52:42.952Z,9.30
2023-03-31T09:55:39.466Z,11.00
2023-03-31T09:58:28.012Z,11.20
2023-03-31T10:01:01.962Z,8.80
2023-03-31T10:04:10.624Z,7.90
2023-03-31T10:06:52.540Z,6.20
2023-03-31T10:09:25.110Z,4.70
2023-03-31T10:12:05.344Z,6.90
2023-03-31T10:14:51.822Z,7.80
2023-03-31T10:17:53.828Z,7.50
2023-03-31T10:20:43.516Z,5.90
2023-03-31T10:23:33.615Z,7.80
2023-03-31T10:26:24.061Z,7.50
2023-03-31T10:29:02.243Z,6.30
2023-03-31T10:32:09.609Z,4.80
2023-03-31T10:35:06.264Z,5.60
2023-03-31T10:37:48.256Z,6.50
2023-03-31T10:40:23.807Z,7.30
2023-03-31T10:43:04.380Z,6.10
2023-03-31T10:45:52.823Z,9.90
2023-03-31T10:48:26.634Z,6.80
2023-03-31T10:51:04.996Z,7.60
2023-03-31T10:54:10.571Z,7.50
2023-03-31T10:56:49.306Z,9.10
2023-03-31T10:59:30.907Z,7.40
2023-03-31T11:02:05.405Z,9.00
2023-03-31T11:04:57.144Z,8.20
2023-03-31T11:07:42.620Z,8.10
2023-03-31T11:10:20.521Z,8.50
2023-03-31T11:13:21.133Z,10.20
2023-03-31T11:16:32.291Z,9.50
2023-03-31T11:19:17.401Z,12.30
2023-03-31T11:21:54.168Z,11.70
2023-03-31T11:24:28.467Z,6.50
2023-03-31T11:27:20.474Z,6.20
2023-03-31T11:29:57.595Z,7.30
2023-03-31T11:32:54.461Z,8.00
2023-03-31T11:35:28.756Z,9.60
2023-03-31T11:38:16.171Z,12.20
2023-03-31T11:40:56.832Z,15.70
2023-03-31T11:43:31.374Z,8.90
2023-03-31T11:46:06.020Z,8.90
2023-03-31T11:48:41.771Z,9.40
2023-03-31T11:51:22.212Z,14.70
2023-03-31T11:54:13.928Z,10.00
2023-03-31T11:56:52.905Z,7.80
2023-03-31T11:59:22.616Z,10.40
2023-03-31T12:02:02.350Z,10.40
2023-03-31T12:04:44.624Z,9.20
2023-03-31T12:07:29.595Z,15.40
2023-03-31T12:10:15.993Z,7.20
2023-03-31T12:12:46.884Z,6.20
2023-03-31T12:15:53.782Z,5.50
2023-03-31T12:18:31.593Z,8.70
2023-03-31T12:21:40.206Z,10.00
2023-03-31T12:24:29.095Z,8.40
2023-03-31T12:27:07.895Z,6.30
2023-03-31T12:29:53.292Z,6.40
2023-03-31T12:32:26.827Z,6.90
2023-03-31T12:35:02.168Z,8.80
2023-03-31T12:37:48.498Z,10.30
2023-03-31T12:40:22.138Z,15.50
2023-03-31T12:43:01.783Z,12.10
2023-03-31T12:45:31.531Z,8.50
2023-03-31T12:48:21.309Z,5.90
2023-03-31T12:51:01.691Z,6.00
2023-03-31T12:53:41.974Z,5.10
2023-03-31T12:56:10.398Z,11.40
2023-03-31T12:58:40.050Z,11.40
2023-03-31T13:01:18.928Z,15.00
2023-03-31T13:03:47.391Z,34.00
2023-03-31T13:06:28.136Z,15.10
2023-03-31T13:09:08.424Z,11.10
2023-03-31T13:11:38.928Z,11.90
2023-03-31T13:14:38.141Z,17.30
2023-03-31T13:17:14.732Z,17.80
2023-03-31T13:19:47.442Z,10.90
2023-03-31T13:22:57.292Z,14.10
2023-03-31T13:25:34.567Z,13.70
2023-03-31T13:28:17.791Z,11.30
2023-03-31T13:30:47.014Z,7.90
2023-03-31T13:33:16.386Z,20.20
2023-03-31T13:35:48.147Z,8.30
2023-03-31T13:38:44.554Z,30.10
2023-03-31T13:41:23.911Z,10.30
2023-03-31T13:44:06.879Z,12.00
2023-03-31T13:46:52.184Z,12.30
2023-03-31T13:49:43.929Z,12.10
2023-03-31T13:52:12.878Z,13.70
2023-03-31T13:55:07.117Z,12.50
2023-03-31T13:58:29.970Z,21.40
2023-03-31T14:01:24.970Z,14.60
2023-03-31T14:04:07.248Z,18.70
2023-03-31T14:07:06.061Z,10.50
2023-03-31T14:09:41.253Z,15.80
2023-03-31T14:12:30.357Z,11.30
2023-03-31T14:15:04.085Z,8.70
2023-03-31T14:17:38.977Z,10.40
2023-03-31T14:20:10.808Z,16.60
2023-03-31T14:22:48.139Z,8.10
2023-03-31T14:25:16.427Z,10.70
2023-03-31T14:28:18.688Z,8.70
2023-03-31T14:31:04.788Z,4.90
2023-03-31T14:34:03.057Z,32.00
2023-03-31T14:36:40.405Z,7.40
2023-03-31T14:39:30.357Z,6.50
2023-03-31T14:42:00.653Z,7.80
2023-03-31T14:44:29.136Z,13.40
2023-03-31T14:46:58.691Z,12.40
2023-03-31T14:49:34.632Z,12.20
2023-03-31T14:52:13.032Z,24.20
2023-03-31T14:54:52.891Z,12.20
2023-03-31T14:57:29.045Z,11.40
2023-03-31T14:59:58.072Z,6.90
2023-03-31T15:02:38.709Z,7.20
2023-03-31T15:05:41.000Z,70.00
2023-03-31T15:08:16.989Z,10.40
2023-03-31T15:10:50.358Z,12.00
2023-03-31T15:13:46.858Z,15.90
2023-03-31T15:16:32.120Z,13.10
2023-03-31T15:19:05.916Z,9.60
2023-03-31T15:21:36.897Z,16.00
2023-03-31T15:24:05.587Z,18.70
2023-03-31T15:26:41.687Z,26.00
2023-03-31T15:29:23.078Z,20.80
2023-03-31T15:31:51.520Z,18.40
2023-03-31T15:34:33.493Z,7.90
2023-03-31T15:37:02.563Z,8.50
2023-03-31T15:39:32.522Z,8.80
2023-03-31T15:42:05.439Z,10.50
2023-03-31T15:44:50.032Z,6.30
2023-03-31T15:47:27.596Z,8.90
2023-03-31T15:49:58.246Z,8.20
2023-03-31T15:52:31.460Z,8.00
2023-03-31T15:55:02.791Z,4.80
2023-03-31T15:57:35.217Z,4.60
2023-03-31T16:00:08.010Z,7.20
2023-03-31T16:02:44.084Z,8.00
2023-03-31T16:05:53.233Z,9.80
2023-03-31T16:08:28.746Z,9.10
2023-03-31T16:11:04.079Z,22.10
2023-03-31T16:13:32.828Z,21.10
2023-03-31T16:16:07.573Z,43.30
2023-03-31T16:18:58.049Z,27.90
2023-03-31T16:21:28.975Z,15.30
2023-03-31T16:23:58.588Z,18.40
2023-03-31T16:26:28.470Z,18.80
2023-03-31T16:29:16.958Z,16.60
2023-03-31T16:31:45.874Z,13.70
2023-03-31T16:34:27.308Z,9.10
2023-03-31T16:36:58.015Z,13.50
2023-03-31T16:39:26.367Z,18.70
2023-03-31T16:41:54.713Z,27.60
2023-03-31T16:44:36.634Z,26.10
2023-03-31T16:47:04.870Z,20.30
2023-03-31T16:49:35.832Z,21.40
2023-03-31T16:52:09.037Z,28.50
2023-03-31T16:54:41.916Z,28.70
2023-03-31T16:57:13.998Z,34.30
2023-03-31T16:59:42.705Z,57.60
2023-03-31T17:02:11.942Z,50.90
2023-03-31T17:04:40.344Z,90.10
2023-03-31T17:07:17.646Z,43.80
2023-03-31T17:09:48.454Z,87.40
2023-03-31T17:12:16.548Z,35.60
2023-03-31T17:14:46.978Z,67.10
2023-03-31T17:17:17.750Z,64.00
2023-03-31T17:22:17.457Z,65.10
2023-03-31T17:24:48.845Z,21.60
2023-03-31T17:27:17.169Z,18.40
2023-03-31T17:29:59.043Z,22.00
2023-03-31T17:32:27.841Z,23.40
2023-03-31T17:34:59.188Z,46.80
2023-03-31T17:37:27.299Z,96.20
2023-03-31T17:39:55.828Z,33.50
2023-03-31T17:42:32.754Z,60.30
2023-03-31T17:45:01.322Z,75.90
2023-03-31T17:47:34.340Z,124.30
2023-03-31T17:50:22.891Z,75.50
2023-03-31T17:52:51.830Z,26.60
2023-03-31T17:55:23.168Z,20.30
2023-03-31T17:57:56.359Z,12.20
2023-03-31T18:00:24.666Z,11.70
2023-03-31T18:03:02.188Z,16.30
2023-03-31T18:05:32.366Z,22.00
2023-03-31T18:08:04.058Z,48.40
2023-03-31T18:10:42.770Z,40.00
2023-03-31T18:13:16.692Z,48.70
2023-03-31T18:15:53.795Z,38.60
2023-03-31T18:18:23.358Z,30.60
2023-03-31T18:24:31.346Z,21.60
2023-03-31T18:27:01.585Z,21.70
2023-03-31T18:29:28.497Z,20.80
2023-03-31T18:31:55.644Z,21.90
2023-03-31T18:34:25.773Z,28.40
2023-03-31T18:36:52.916Z,39.00
2023-03-31T18:39:22.368Z,43.50
2023-03-31T18:41:53.585Z,22.30
2023-03-31T18:44:23.563Z,14.10
2023-03-31T18:46:50.567Z,15.10
2023-03-31T18:49:19.540Z,23.30
2023-03-31T18:51:46.240Z,24.10
2023-03-31T18:54:15.535Z,20.30
2023-03-31T18:56:42.421Z,26.60
2023-03-31T18:59:09.784Z,19.20
2023-03-31T19:01:41.747Z,24.60
2023-03-31T19:04:33.844Z,15.00
2023-03-31T19:07:06.336Z,25.40
2023-03-31T19:09:35.667Z,16.80
2023-03-31T19:12:08.694Z,12.80
2023-03-31T19:14:46.674Z,47.00
2023-03-31T19:17:13.334Z,62.20
2023-03-31T19:19:50.717Z,66.60
2023-03-31T19:22:22.764Z,52.20
2023-03-31T19:24:49.924Z,50.10
2023-03-31T19:27:25.861Z,68.80
2023-03-31T19:30:05.424Z,62.00
2023-03-31T19:32:32.381Z,76.10
2023-03-31T19:35:06.701Z,57.70
2023-03-31T19:37:33.441Z,55.40
2023-03-31T19:40:02.472Z,36.50
2023-03-31T19:42:31.709Z,41.50
2023-03-31T19:45:04.449Z,35.10
2023-03-31T19:47:47.031Z,29.60
2023-03-31T19:50:16.401Z,31.20
2023-03-31T19:52:46.769Z,29.00
2023-03-31T19:55:15.603Z,24.20
2023-03-31T19:57:42.543Z,18.20
2023-03-31T20:00:10.257Z,14.80
2023-03-31T20:02:37.396Z,12.30
2023-03-31T20:05:07.809Z,16.10
2023-03-31T20:07:34.643Z,18.40
2023-03-31T20:10:03.780Z,13.90
2023-03-31T20:12:30.479Z,10.50
2023-03-31T20:14:59.677Z,9.00
2023-03-31T20:17:26.726Z,9.90
2023-03-31T20:19:56.680Z,10.10
2023-03-31T20:22:26.024Z,13.40
2023-03-31T20:25:05.356Z,11.50
2023-03-31T20:27:32.297Z,9.70
2023-03-31T20:30:09.277Z,11.00
2023-03-31T20:32:38.083Z,6.00
2023-03-31T20:35:06.099Z,5.60
2023-03-31T20:37:32.776Z,6.10
2023-03-31T20:40:04.192Z,4.90
2023-03-31T20:42:35.782Z,9.10
2023-03-31T20:45:02.685Z,5.00
2023-03-31T20:47:31.506Z,4.90
2023-03-31T20:49:58.890Z,5.00
2023-03-31T20:52:38.225Z,2.30
2023-03-31T20:55:08.189Z,8.00
2023-03-31T20:57:55.544Z,11.50
2023-03-31T21:00:25.593Z,12.00
2023-03-31T21:03:20.602Z,12.50
2023-03-31T21:06:10.895Z,15.70
2023-03-31T21:08:51.887Z,14.10
2023-03-31T21:11:18.947Z,22.40
2023-03-31T21:13:48.367Z,18.90
2023-03-31T21:16:15.723Z,16.80
2023-03-31T21:18:59.053Z,15.40
2023-03-31T21:21:28.467Z,12.80
2023-03-31T21:23:59.925Z,10.80
2023-03-31T21:26:38.049Z,7.90
2023-03-31T21:29:05.185Z,19.50
2023-03-31T21:31:45.455Z,14.20
2023-03-31T21:34:12.464Z,15.90
2023-03-31T21:36:39.214Z,7.60
2023-03-31T21:39:09.175Z,8.90
2023-03-31T21:41:37.363Z,16.20
2023-03-31T21:44:07.131Z,16.50
2023-03-31T21:46:40.431Z,13.60
2023-03-31T21:49:07.374Z,18.10
2023-03-31T21:51:44.522Z,18.10
2023-03-31T21:54:22.060Z,15.80
2023-03-31T21:56:49.029Z,13.00
2023-03-31T21:59:15.835Z,9.30
2023-03-31T22:01:45.702Z,5.70
2023-03-31T22:04:18.726Z,8.60
2023-03-31T22:06:45.882Z,6.80
2023-03-31T22:09:18.357Z,7.10
2023-03-31T22:11:45.854Z,7.60
2023-03-31T22:14:12.507Z,7.20
2023-03-31T22:16:41.994Z,8.30
2023-03-31T22:19:14.425Z,7.60
2023-03-31T22:21:43.021Z,8.30
2023-03-31T22:24:10.827Z,9.10
2023-03-31T22:26:37.692Z,7.50
2023-03-31T22:29:07.562Z,6.80
2023-03-31T22:31:46.165Z,8.30
2023-03-31T22:34:27.122Z,11.90
2023-03-31T22:36:54.004Z,10.10
2023-03-31T22:39:23.219Z,8.70
2023-03-31T22:41:50.280Z,7.10
2023-03-31T22:44:19.426Z,9.10
2023-03-31T22:46:46.057Z,9.40
2023-03-31T22:49:26.822Z,10.10
2023-03-31T22:51:53.860Z,9.10
2023-03-31T22:54:20.733Z,10.90
2023-03-31T22:56:49.652Z,9.20
2023-03-31T22:59:19.636Z,9.80
2023-03-31T23:01:53.649Z,6.60
2023-03-31T23:04:23.751Z,7.20
2023-03-31T23:07:11.852Z,8.90
2023-03-31T23:09:41.392Z,13.90
2023-03-31T23:12:08.168Z,10.40
2023-03-31T23:14:42.566Z,8.30
2023-03-31T23:17:12.686Z,9.60
2023-03-31T23:19:40.202Z,11.90
2023-03-31T23:22:07.227Z,13.40
2023-03-31T23:24:34.123Z,14.00
2023-03-31T23:27:03.890Z,11.60
2023-03-31T23:29:33.029Z,9.70
2023-03-31T23:32:05.530Z,10.60
2023-03-31T23:34:42.899Z,9.10
2023-03-31T23:37:10.763Z,11.10
2023-03-31T23:39:38.172Z,8.00
2023-03-31T23:42:15.387Z,8.00
2023-03-31T23:44:41.831Z,6.30
2023-03-31T23:47:08.484Z,7.90
2023-03-31T23:49:35.186Z,8.10
2023-03-31T23:52:16.479Z,7.00
2023-03-31T23:54:45.871Z,6.50
2023-03-31T23:57:15.159Z,8.30
2023-03-31T23:59:44.478Z,8.50
